To NAV CANADA Home Page Login to a new session Search on AWWS site Feedback and Comments Disclaimer Vers la page française équivalente Tips FAQ What's new on the site To the Forecasts and Observations / NOTAM section To "File a Flight Plan" website Publications and other links Update of the User's profile FIC Telephone Numbers My Weather Data Folder Route Weather Data Regional Weather Data Local Weather Data To the Forecasts and Observations / NOTAM section
Request Generated 09/26/2017 at 05:37:53 UTC . Weather information available at that time is displayed.

METAR/TAF

If you find any discrepancies between the coded METAR/TAF and the plain language METAR/TAF please use the coded METAR/TAF. LWIS bulletins are not decoded in plain language.

VANCOUVER INTL/BC    (show WxCam)

METAR CYVR 260500Z 31003KT 15SM SCT056 13/12 A3013 RMK SC4 SLP203=
METAR
LOCATION
CYVR - VANCOUVER INTL/BC
DATE - TIME
26 SEPTEMBER 2017 - 0500 UTC
WIND
310 TRUE @ 3  KNOTS
VISIBILITY
15 STAT.  MILES
RUNWAY VISUAL RANGE
WEATHER
CLOUDINESS
SCATTERED CLOUDS (3/8 - 4/8) 5600  FT
TEMP / DEWPOINT
13 C / 12 C
ALTIMETER
30.13 IN HG
RECENT WEATHER
WIND SHEAR

METAR CYVR 260400Z 25002KT 15SM SCT063 BKN078 14/13 A3012 RMK SC3AC3 SLP200=
METAR
LOCATION
CYVR - VANCOUVER INTL/BC
DATE - TIME
26 SEPTEMBER 2017 - 0400 UTC
WIND
250 TRUE @ 2  KNOTS
VISIBILITY
15 STAT.  MILES
RUNWAY VISUAL RANGE
WEATHER
CLOUDINESS
SCATTERED CLOUDS (3/8 - 4/8) 6300  FT
BROKEN CLOUDS (5/8 - 7/8) 7800  FT
TEMP / DEWPOINT
14 C / 13 C
ALTIMETER
30.12 IN HG
RECENT WEATHER
WIND SHEAR

METAR CYVR 260300Z 27002KT 15SM SCT063 BKN078 OVC120 15/13 A3011 RMK SC3AC3AC2 SLP197=
METAR
LOCATION
CYVR - VANCOUVER INTL/BC
DATE - TIME
26 SEPTEMBER 2017 - 0300 UTC
WIND
270 TRUE @ 2  KNOTS
VISIBILITY
15 STAT.  MILES
RUNWAY VISUAL RANGE
WEATHER
CLOUDINESS
SCATTERED CLOUDS (3/8 - 4/8) 6300  FT
BROKEN CLOUDS (5/8 - 7/8) 7800  FT
OVERCAST 12000  FT
TEMP / DEWPOINT
15 C / 13 C
ALTIMETER
30.11 IN HG
RECENT WEATHER
WIND SHEAR

TAF CYVR 260238Z 2603/2706 VRB03KT P6SM FEW020 SCT070 BKN080 TEMPO 2603/2608 BKN020 OVC070 FM260800 VRB03KT P6SM BKN020 OVC070 FM261900 27008KT P6SM SCT040 RMK NXT FCST BY 260600Z=
TAF
LOCATION

CYVR - VANCOUVER INTL/BC
VALIDITY [UTC]
26 SEP - 0238 to
27 SEP - 0600
 
TIMES
[UTC]
WIND
[DEGREES TRUE]
VISIBILITY
[STAT. MILES]
WEATHER
CLOUDINESS
[FEET AGL]
 
26 SEP - 0300 to
26 SEP - 0800
VARIABLE @ 3 KNOTS
6+
NIL
2000 FEW
7000 SCATTERED
8000 BROKEN
TEMPORARY CHANGES
26 SEP - 0300 to
26 SEP - 0800
 
 
 
2000 BROKEN
7000 OVERCAST
 
26 SEP - 0800 to
26 SEP - 1900
VARIABLE @ 3 KNOTS
6+
NIL
2000 BROKEN
7000 OVERCAST
 
26 SEP - 1900 to
27 SEP - 0600
270 @ 8 KNOTS
6+
NIL
4000 SCATTERED
REMARKS
THE NEXT FORECAST WILL BE ISSUED BY 0600 UTC ON DAY 26


Your time UTC time
Weather data provided by Environment Canada and NAV CANADA